Jsp Amihan — V2GX7 — position and weather

sailwx.info

Track history (hours):
 
Tides and Currents Weather Stations Pressure Air Temp Water Temp Dewpoint Dewpoint Depression Visibility Wind Speed Wind Dir Waves Ship Positions

Jsp Amihan

Last reported at 2018-Jun-16 18:51 UTC. Time now 2018-Jun-19 20:16 UTC.
Position N 26°32' W 078°46'.

Length 139 m; draft 7.3 m.

Type: Cargo ship. MMSI: 305007000.

Date/timePositionNaut miles runAvg speedWind from/ knotsBaromVisibWave heightAir tempDewpointWater temp
2018-Jun-16 18:51N 26°32' W 078°46'0 0.0
2018-Jun-16 17:36N 26°32' W 078°46'0 0.0
2018-Jun-16 17:18N 26°32' W 078°46'0 0.0
2018-Jun-16 16:54N 26°32' W 078°46'0 0.0
2018-Jun-16 16:27N 26°32' W 078°46'  
2018-Jun-07 06:01N 26°08' W 079°29'114.7
2018-Jun-07 05:56N 26°08' W 079°30'614.9
2018-Jun-07 05:30N 26°08' W 079°38'815.0
2018-Jun-07 05:00N 26°07' W 079°46'815.0
2018-Jun-07 04:30N 26°07' W 079°54'815.1
2018-Jun-07 04:00N 26°06' W 080°03'4 7.7
2018-Jun-07 03:31N 26°05' W 080°07'1 1.4
2018-Jun-07 02:53N 26°04' W 080°07'0 0.0
2018-Jun-07 02:23N 26°04' W 080°07'0 0.0
2018-Jun-07 01:53N 26°04' W 080°07'0 0.0
2018-Jun-07 01:23N 26°04' W 080°07'0 0.0
2018-Jun-07 00:53N 26°04' W 080°07'0 0.0
2018-Jun-07 00:23N 26°04' W 080°07'0 0.0
2018-Jun-06 23:53N 26°04' W 080°07'0 0.0
2018-Jun-06 23:20N 26°04' W 080°07'0 0.0
2018-Jun-06 22:53N 26°04' W 080°07'0 0.0
2018-Jun-06 22:26N 26°04' W 080°07'0 0.0
2018-Jun-06 21:50N 26°04' W 080°07'0 0.0
2018-Jun-06 21:29N 26°04' W 080°07'0 0.0
2018-Jun-06 20:59N 26°04' W 080°07'0 0.0
2018-Jun-06 20:30N 26°04' W 080°07'1 2.9
2018-Jun-06 20:00N 26°06' W 080°06'5 9.5
2018-Jun-06 19:30N 26°06' W 080°01'4 7.2
2018-Jun-06 19:00N 26°06' W 079°57'  
Track history (hours):
 
Tides and Currents Weather Stations Pressure Air Temp Water Temp Dewpoint Dewpoint Depression Visibility Wind Speed Wind Dir Waves Ship Positions

Jsp Amihan

Last reported at 2018-Jun-16 18:51 UTC. Time now 2018-Jun-19 20:16 UTC.
Position N 26°32' W 078°46'.

Length 139 m; draft 7.3 m.

Type: Cargo ship. MMSI: 305007000.

Date/timePositionNaut miles runAvg speedWind from/ knotsBaromVisibWave heightAir tempDewpointWater temp
2018-Jun-16 18:51N 26°32' W 078°46'0 0.0
2018-Jun-16 17:36N 26°32' W 078°46'0 0.0
2018-Jun-16 17:18N 26°32' W 078°46'0 0.0
2018-Jun-16 16:54N 26°32' W 078°46'0 0.0
2018-Jun-16 16:27N 26°32' W 078°46'  
2018-Jun-07 06:01N 26°08' W 079°29'114.7
2018-Jun-07 05:56N 26°08' W 079°30'614.9
2018-Jun-07 05:30N 26°08' W 079°38'815.0
2018-Jun-07 05:00N 26°07' W 079°46'815.0
2018-Jun-07 04:30N 26°07' W 079°54'815.1
2018-Jun-07 04:00N 26°06' W 080°03'4 7.7
2018-Jun-07 03:31N 26°05' W 080°07'1 1.4
2018-Jun-07 02:53N 26°04' W 080°07'0 0.0
2018-Jun-07 02:23N 26°04' W 080°07'0 0.0
2018-Jun-07 01:53N 26°04' W 080°07'0 0.0
2018-Jun-07 01:23N 26°04' W 080°07'0 0.0
2018-Jun-07 00:53N 26°04' W 080°07'0 0.0
2018-Jun-07 00:23N 26°04' W 080°07'0 0.0
2018-Jun-06 23:53N 26°04' W 080°07'0 0.0
2018-Jun-06 23:20N 26°04' W 080°07'0 0.0
2018-Jun-06 22:53N 26°04' W 080°07'0 0.0
2018-Jun-06 22:26N 26°04' W 080°07'0 0.0
2018-Jun-06 21:50N 26°04' W 080°07'0 0.0
2018-Jun-06 21:29N 26°04' W 080°07'0 0.0
2018-Jun-06 20:59N 26°04' W 080°07'0 0.0
2018-Jun-06 20:30N 26°04' W 080°07'1 2.9
2018-Jun-06 20:00N 26°06' W 080°06'5 9.5
2018-Jun-06 19:30N 26°06' W 080°01'4 7.2
2018-Jun-06 19:00N 26°06' W 079°57'  

Dump ship's entire track history